sensor_id;sensor_type;location;lat;lon;timestamp;temperature;humidity
33803;DHT22;20110;53.120;5.786;2023-11-21T00:02:23;12.20;99.90
33803;DHT22;20110;53.120;5.786;2023-11-21T00:04:49;12.30;99.90
33803;DHT22;20110;53.120;5.786;2023-11-21T00:07:15;12.20;99.90
33803;DHT22;20110;53.120;5.786;2023-11-21T00:09:41;12.20;99.90
33803;DHT22;20110;53.120;5.786;2023-11-21T00:12:07;12.30;99.90
33803;DHT22;20110;53.120;5.786;2023-11-21T00:14:39;12.20;99.90
33803;DHT22;20110;53.120;5.786;2023-11-21T00:17:05;12.30;99.90
33803;DHT22;20110;53.120;5.786;2023-11-21T00:19:31;12.40;99.90
33803;DHT22;20110;53.120;5.786;2023-11-21T00:21:58;12.50;99.90
33803;DHT22;20110;53.120;5.786;2023-11-21T00:24:24;12.50;99.90
33803;DHT22;20110;53.120;5.786;2023-11-21T00:26:50;12.40;99.90
33803;DHT22;20110;53.120;5.786;2023-11-21T00:29:16;12.50;99.90
33803;DHT22;20110;53.120;5.786;2023-11-21T00:31:44;12.40;99.90
33803;DHT22;20110;53.120;5.786;2023-11-21T00:34:11;12.60;99.90
33803;DHT22;20110;53.120;5.786;2023-11-21T00:36:37;12.20;99.90
33803;DHT22;20110;53.120;5.786;2023-11-21T00:39:03;12.40;99.90
33803;DHT22;20110;53.120;5.786;2023-11-21T00:41:29;12.30;99.90
33803;DHT22;20110;53.120;5.786;2023-11-21T00:43:54;12.30;99.90
33803;DHT22;20110;53.120;5.786;2023-11-21T00:46:20;12.70;99.90
33803;DHT22;20110;53.120;5.786;2023-11-21T00:48:46;12.60;99.90
33803;DHT22;20110;53.120;5.786;2023-11-21T00:51:12;12.30;99.90
33803;DHT22;20110;53.120;5.786;2023-11-21T00:53:38;12.60;99.90
33803;DHT22;20110;53.120;5.786;2023-11-21T00:56:04;12.60;99.90
33803;DHT22;20110;53.120;5.786;2023-11-21T00:58:30;12.50;99.90
33803;DHT22;20110;53.120;5.786;2023-11-21T01:00:56;12.50;99.90
33803;DHT22;20110;53.120;5.786;2023-11-21T01:03:23;12.40;99.90
33803;DHT22;20110;53.120;5.786;2023-11-21T01:05:49;12.60;99.90
33803;DHT22;20110;53.120;5.786;2023-11-21T01:08:15;12.60;99.90
33803;DHT22;20110;53.120;5.786;2023-11-21T01:10:41;12.40;99.90
33803;DHT22;20110;53.120;5.786;2023-11-21T01:13:07;12.60;99.90
33803;DHT22;20110;53.120;5.786;2023-11-21T01:15:33;12.40;99.90
33803;DHT22;20110;53.120;5.786;2023-11-21T01:17:59;12.50;99.90
33803;DHT22;20110;53.120;5.786;2023-11-21T01:20:25;12.30;99.90
33803;DHT22;20110;53.120;5.786;2023-11-21T01:22:51;12.30;99.90
33803;DHT22;20110;53.120;5.786;2023-11-21T01:25:17;12.50;99.90
33803;DHT22;20110;53.120;5.786;2023-11-21T01:27:42;12.70;99.90
33803;DHT22;20110;53.120;5.786;2023-11-21T01:30:09;13.00;99.90
33803;DHT22;20110;53.120;5.786;2023-11-21T01:32:36;13.10;99.90
33803;DHT22;20110;53.120;5.786;2023-11-21T01:35:02;13.40;99.90
33803;DHT22;20110;53.120;5.786;2023-11-21T01:37:30;13.30;99.90
33803;DHT22;20110;53.120;5.786;2023-11-21T01:39:56;13.30;99.90
33803;DHT22;20110;53.120;5.786;2023-11-21T01:42:22;13.50;99.90
33803;DHT22;20110;53.120;5.786;2023-11-21T01:44:48;13.40;99.90
33803;DHT22;20110;53.120;5.786;2023-11-21T01:47:14;13.30;99.90
33803;DHT22;20110;53.120;5.786;2023-11-21T01:49:42;13.70;99.90
33803;DHT22;20110;53.120;5.786;2023-11-21T01:52:09;13.60;99.90
33803;DHT22;20110;53.120;5.786;2023-11-21T01:54:36;13.80;99.90
33803;DHT22;20110;53.120;5.786;2023-11-21T01:57:03;13.90;99.90
33803;DHT22;20110;53.120;5.786;2023-11-21T01:59:35;13.80;99.90
33803;DHT22;20110;53.120;5.786;2023-11-21T02:02:05;14.00;99.90
33803;DHT22;20110;53.120;5.786;2023-11-21T02:04:32;14.00;99.90
33803;DHT22;20110;53.120;5.786;2023-11-21T02:06:59;14.10;99.90
33803;DHT22;20110;53.120;5.786;2023-11-21T02:09:26;14.20;99.90
33803;DHT22;20110;53.120;5.786;2023-11-21T02:11:53;14.30;99.90
33803;DHT22;20110;53.120;5.786;2023-11-21T02:14:24;14.40;99.90
33803;DHT22;20110;53.120;5.786;2023-11-21T02:16:53;14.40;99.90
33803;DHT22;20110;53.120;5.786;2023-11-21T02:19:21;14.40;99.90
33803;DHT22;20110;53.120;5.786;2023-11-21T02:21:55;14.30;99.90
33803;DHT22;20110;53.120;5.786;2023-11-21T02:24:28;14.40;99.90
33803;DHT22;20110;53.120;5.786;2023-11-21T02:26:54;14.50;99.90
33803;DHT22;20110;53.120;5.786;2023-11-21T02:29:20;14.50;99.90
33803;DHT22;20110;53.120;5.786;2023-11-21T02:31:53;14.50;99.90
33803;DHT22;20110;53.120;5.786;2023-11-21T02:34:20;14.50;99.90
33803;DHT22;20110;53.120;5.786;2023-11-21T02:36:47;14.50;99.90
33803;DHT22;20110;53.120;5.786;2023-11-21T02:39:16;14.50;99.90
33803;DHT22;20110;53.120;5.786;2023-11-21T02:41:43;14.50;99.90
33803;DHT22;20110;53.120;5.786;2023-11-21T02:44:09;14.60;99.90
33803;DHT22;20110;53.120;5.786;2023-11-21T02:46:36;14.60;99.90
33803;DHT22;20110;53.120;5.786;2023-11-21T02:49:02;14.60;99.90
33803;DHT22;20110;53.120;5.786;2023-11-21T02:51:29;14.50;99.90
33803;DHT22;20110;53.120;5.786;2023-11-21T02:53:55;14.60;99.90
33803;DHT22;20110;53.120;5.786;2023-11-21T02:56:26;14.60;99.90
33803;DHT22;20110;53.120;5.786;2023-11-21T02:58:52;14.60;99.90
33803;DHT22;20110;53.120;5.786;2023-11-21T03:01:20;14.60;99.90
33803;DHT22;20110;53.120;5.786;2023-11-21T03:03:46;14.60;99.90
33803;DHT22;20110;53.120;5.786;2023-11-21T03:06:13;14.70;99.90
33803;DHT22;20110;53.120;5.786;2023-11-21T03:08:38;14.60;99.90
33803;DHT22;20110;53.120;5.786;2023-11-21T03:11:04;14.60;99.90
33803;DHT22;20110;53.120;5.786;2023-11-21T03:13:30;14.70;99.90
33803;DHT22;20110;53.120;5.786;2023-11-21T03:15:55;14.60;99.90
33803;DHT22;20110;53.120;5.786;2023-11-21T03:18:21;14.60;99.90
33803;DHT22;20110;53.120;5.786;2023-11-21T03:20:51;14.60;99.90
33803;DHT22;20110;53.120;5.786;2023-11-21T03:23:17;14.60;99.90
33803;DHT22;20110;53.120;5.786;2023-11-21T03:25:43;14.60;99.90
33803;DHT22;20110;53.120;5.786;2023-11-21T03:28:09;14.60;99.90
33803;DHT22;20110;53.120;5.786;2023-11-21T03:30:35;14.60;99.90
33803;DHT22;20110;53.120;5.786;2023-11-21T03:33:00;14.60;99.90
33803;DHT22;20110;53.120;5.786;2023-11-21T03:35:26;14.60;99.90
33803;DHT22;20110;53.120;5.786;2023-11-21T03:37:53;14.60;99.90
33803;DHT22;20110;53.120;5.786;2023-11-21T03:40:19;14.50;99.90
33803;DHT22;20110;53.120;5.786;2023-11-21T03:42:46;14.50;99.90
33803;DHT22;20110;53.120;5.786;2023-11-21T03:45:12;14.50;99.90
33803;DHT22;20110;53.120;5.786;2023-11-21T03:47:41;14.50;99.90
33803;DHT22;20110;53.120;5.786;2023-11-21T03:50:07;14.50;99.90
33803;DHT22;20110;53.120;5.786;2023-11-21T03:52:34;14.40;99.90
33803;DHT22;20110;53.120;5.786;2023-11-21T03:55:00;14.40;99.90
33803;DHT22;20110;53.120;5.786;2023-11-21T03:57:26;14.40;99.90
33803;DHT22;20110;53.120;5.786;2023-11-21T03:59:55;14.40;99.90
33803;DHT22;20110;53.120;5.786;2023-11-21T04:02:20;14.40;99.90
33803;DHT22;20110;53.120;5.786;2023-11-21T04:04:46;14.30;99.90
33803;DHT22;20110;53.120;5.786;2023-11-21T04:07:12;14.40;99.90
33803;DHT22;20110;53.120;5.786;2023-11-21T04:09:39;14.40;99.90
33803;DHT22;20110;53.120;5.786;2023-11-21T04:12:06;14.40;99.90
33803;DHT22;20110;53.120;5.786;2023-11-21T04:14:34;14.40;99.90
33803;DHT22;20110;53.120;5.786;2023-11-21T04:16:59;14.40;99.90
33803;DHT22;20110;53.120;5.786;2023-11-21T04:19:25;14.40;99.90
33803;DHT22;20110;53.120;5.786;2023-11-21T04:21:51;14.40;99.90
33803;DHT22;20110;53.120;5.786;2023-11-21T04:24:17;14.30;99.90
33803;DHT22;20110;53.120;5.786;2023-11-21T04:26:43;14.30;99.90
33803;DHT22;20110;53.120;5.786;2023-11-21T04:29:09;14.30;99.90
33803;DHT22;20110;53.120;5.786;2023-11-21T04:31:35;14.30;99.90
33803;DHT22;20110;53.120;5.786;2023-11-21T04:34:00;14.30;99.90
33803;DHT22;20110;53.120;5.786;2023-11-21T04:36:26;14.30;99.90
33803;DHT22;20110;53.120;5.786;2023-11-21T04:38:52;14.30;99.90
33803;DHT22;20110;53.120;5.786;2023-11-21T04:41:17;14.20;99.90
33803;DHT22;20110;53.120;5.786;2023-11-21T04:43:43;14.20;99.90
33803;DHT22;20110;53.120;5.786;2023-11-21T04:46:09;14.30;99.90
33803;DHT22;20110;53.120;5.786;2023-11-21T04:48:34;14.30;99.90
33803;DHT22;20110;53.120;5.786;2023-11-21T04:51:00;14.20;99.90
33803;DHT22;20110;53.120;5.786;2023-11-21T04:53:26;14.20;99.90
33803;DHT22;20110;53.120;5.786;2023-11-21T04:55:51;14.20;99.90
33803;DHT22;20110;53.120;5.786;2023-11-21T04:58:18;14.20;99.90
33803;DHT22;20110;53.120;5.786;2023-11-21T05:00:44;14.20;99.90
33803;DHT22;20110;53.120;5.786;2023-11-21T05:03:10;14.20;99.90
33803;DHT22;20110;53.120;5.786;2023-11-21T05:05:36;14.10;99.90
33803;DHT22;20110;53.120;5.786;2023-11-21T05:08:01;14.10;99.90
33803;DHT22;20110;53.120;5.786;2023-11-21T05:10:28;14.10;99.90
33803;DHT22;20110;53.120;5.786;2023-11-21T05:12:54;14.20;99.90
33803;DHT22;20110;53.120;5.786;2023-11-21T05:15:20;14.20;99.90
33803;DHT22;20110;53.120;5.786;2023-11-21T05:17:46;14.20;99.90
33803;DHT22;20110;53.120;5.786;2023-11-21T05:20:15;14.10;99.90
33803;DHT22;20110;53.120;5.786;2023-11-21T05:22:48;14.10;99.90
33803;DHT22;20110;53.120;5.786;2023-11-21T05:25:15;14.00;99.90
33803;DHT22;20110;53.120;5.786;2023-11-21T05:27:46;14.00;99.90
33803;DHT22;20110;53.120;5.786;2023-11-21T05:30:13;14.00;99.90
33803;DHT22;20110;53.120;5.786;2023-11-21T05:32:39;14.00;99.90
33803;DHT22;20110;53.120;5.786;2023-11-21T05:35:08;13.90;99.90
33803;DHT22;20110;53.120;5.786;2023-11-21T05:37:35;13.90;99.90
33803;DHT22;20110;53.120;5.786;2023-11-21T05:40:01;13.90;99.90
33803;DHT22;20110;53.120;5.786;2023-11-21T05:42:31;13.90;99.90
33803;DHT22;20110;53.120;5.786;2023-11-21T05:44:57;13.80;99.90
33803;DHT22;20110;53.120;5.786;2023-11-21T05:47:45;13.80;99.90
33803;DHT22;20110;53.120;5.786;2023-11-21T05:50:12;13.70;99.90
33803;DHT22;20110;53.120;5.786;2023-11-21T05:52:45;13.60;99.90
33803;DHT22;20110;53.120;5.786;2023-11-21T05:55:12;13.60;99.90
33803;DHT22;20110;53.120;5.786;2023-11-21T05:57:38;13.60;99.90
33803;DHT22;20110;53.120;5.786;2023-11-21T06:02:39;13.50;99.90
33803;DHT22;20110;53.120;5.786;2023-11-21T06:05:09;13.50;99.90
33803;DHT22;20110;53.120;5.786;2023-11-21T06:07:34;13.50;99.90
33803;DHT22;20110;53.120;5.786;2023-11-21T06:10:07;13.50;99.90
33803;DHT22;20110;53.120;5.786;2023-11-21T06:12:37;13.50;99.90
33803;DHT22;20110;53.120;5.786;2023-11-21T06:15:03;13.60;99.90
33803;DHT22;20110;53.120;5.786;2023-11-21T06:17:36;13.50;99.90
33803;DHT22;20110;53.120;5.786;2023-11-21T06:20:03;13.50;99.90
33803;DHT22;20110;53.120;5.786;2023-11-21T06:22:41;13.50;99.90
33803;DHT22;20110;53.120;5.786;2023-11-21T06:25:08;13.50;99.90
33803;DHT22;20110;53.120;5.786;2023-11-21T06:27:34;13.50;99.90
33803;DHT22;20110;53.120;5.786;2023-11-21T06:30:03;13.50;99.90
33803;DHT22;20110;53.120;5.786;2023-11-21T06:32:30;13.50;99.90
33803;DHT22;20110;53.120;5.786;2023-11-21T06:34:59;13.50;99.90
33803;DHT22;20110;53.120;5.786;2023-11-21T06:37:26;13.50;99.90
33803;DHT22;20110;53.120;5.786;2023-11-21T06:39:52;13.50;99.90
33803;DHT22;20110;53.120;5.786;2023-11-21T06:42:18;13.50;99.90
33803;DHT22;20110;53.120;5.786;2023-11-21T06:44:45;13.50;99.90
33803;DHT22;20110;53.120;5.786;2023-11-21T06:47:11;13.50;99.90
33803;DHT22;20110;53.120;5.786;2023-11-21T06:49:36;13.50;99.90
33803;DHT22;20110;53.120;5.786;2023-11-21T06:52:04;13.50;99.90
33803;DHT22;20110;53.120;5.786;2023-11-21T06:54:33;13.50;99.90
33803;DHT22;20110;53.120;5.786;2023-11-21T06:57:00;13.40;99.90
33803;DHT22;20110;53.120;5.786;2023-11-21T06:59:28;13.50;99.90
33803;DHT22;20110;53.120;5.786;2023-11-21T07:01:54;13.50;99.90
33803;DHT22;20110;53.120;5.786;2023-11-21T07:04:21;13.50;99.90
33803;DHT22;20110;53.120;5.786;2023-11-21T07:06:47;13.50;99.90
33803;DHT22;20110;53.120;5.786;2023-11-21T07:09:13;13.40;99.90
33803;DHT22;20110;53.120;5.786;2023-11-21T07:11:39;13.50;99.90
33803;DHT22;20110;53.120;5.786;2023-11-21T07:14:05;13.50;99.90
33803;DHT22;20110;53.120;5.786;2023-11-21T07:16:38;13.50;99.90
33803;DHT22;20110;53.120;5.786;2023-11-21T07:19:04;13.50;99.90
33803;DHT22;20110;53.120;5.786;2023-11-21T07:21:31;13.40;99.90
33803;DHT22;20110;53.120;5.786;2023-11-21T07:23:58;13.40;99.90
33803;DHT22;20110;53.120;5.786;2023-11-21T07:26:27;13.40;99.90
33803;DHT22;20110;53.120;5.786;2023-11-21T07:28:53;13.30;99.90
33803;DHT22;20110;53.120;5.786;2023-11-21T07:31:19;13.30;99.90
33803;DHT22;20110;53.120;5.786;2023-11-21T07:33:45;13.30;99.90
33803;DHT22;20110;53.120;5.786;2023-11-21T07:36:15;13.30;99.90
33803;DHT22;20110;53.120;5.786;2023-11-21T07:38:41;13.20;99.90
33803;DHT22;20110;53.120;5.786;2023-11-21T07:41:08;13.20;99.90
33803;DHT22;20110;53.120;5.786;2023-11-21T07:43:35;13.20;99.90
33803;DHT22;20110;53.120;5.786;2023-11-21T07:46:03;13.10;99.90
33803;DHT22;20110;53.120;5.786;2023-11-21T07:48:30;13.10;99.90
33803;DHT22;20110;53.120;5.786;2023-11-21T07:50:57;13.10;99.90
33803;DHT22;20110;53.120;5.786;2023-11-21T07:53:26;13.10;99.90
33803;DHT22;20110;53.120;5.786;2023-11-21T07:56:04;13.10;99.90
33803;DHT22;20110;53.120;5.786;2023-11-21T07:58:31;13.00;99.90
33803;DHT22;20110;53.120;5.786;2023-11-21T08:01:00;13.00;99.90
33803;DHT22;20110;53.120;5.786;2023-11-21T08:03:27;13.00;99.90
33803;DHT22;20110;53.120;5.786;2023-11-21T08:05:54;13.00;99.90
33803;DHT22;20110;53.120;5.786;2023-11-21T08:08:20;13.00;99.90
33803;DHT22;20110;53.120;5.786;2023-11-21T08:10:46;12.90;99.90
33803;DHT22;20110;53.120;5.786;2023-11-21T08:13:13;12.90;99.90
33803;DHT22;20110;53.120;5.786;2023-11-21T08:15:41;12.90;99.90
33803;DHT22;20110;53.120;5.786;2023-11-21T08:18:11;12.90;99.90
33803;DHT22;20110;53.120;5.786;2023-11-21T08:20:38;12.90;99.90
33803;DHT22;20110;53.120;5.786;2023-11-21T08:23:05;12.90;99.90
33803;DHT22;20110;53.120;5.786;2023-11-21T08:25:31;13.00;99.90
33803;DHT22;20110;53.120;5.786;2023-11-21T08:27:58;13.00;99.90
33803;DHT22;20110;53.120;5.786;2023-11-21T08:30:24;13.00;99.90
33803;DHT22;20110;53.120;5.786;2023-11-21T08:32:50;13.00;99.90
33803;DHT22;20110;53.120;5.786;2023-11-21T08:35:19;13.00;99.90
33803;DHT22;20110;53.120;5.786;2023-11-21T08:37:45;13.10;99.90
33803;DHT22;20110;53.120;5.786;2023-11-21T08:40:11;13.10;99.90
33803;DHT22;20110;53.120;5.786;2023-11-21T08:42:41;13.10;99.90
33803;DHT22;20110;53.120;5.786;2023-11-21T08:45:08;13.10;99.90
33803;DHT22;20110;53.120;5.786;2023-11-21T08:47:34;13.10;99.90
33803;DHT22;20110;53.120;5.786;2023-11-21T08:50:02;13.10;99.90
33803;DHT22;20110;53.120;5.786;2023-11-21T08:52:28;13.10;99.90
33803;DHT22;20110;53.120;5.786;2023-11-21T08:54:54;13.10;99.90
33803;DHT22;20110;53.120;5.786;2023-11-21T08:57:22;13.10;99.90
33803;DHT22;20110;53.120;5.786;2023-11-21T08:59:48;13.10;99.90
33803;DHT22;20110;53.120;5.786;2023-11-21T09:02:14;13.10;99.90
33803;DHT22;20110;53.120;5.786;2023-11-21T09:04:39;13.00;99.90
33803;DHT22;20110;53.120;5.786;2023-11-21T09:07:05;13.10;99.90
33803;DHT22;20110;53.120;5.786;2023-11-21T09:09:31;13.10;99.90
33803;DHT22;20110;53.120;5.786;2023-11-21T09:11:57;13.10;99.90
33803;DHT22;20110;53.120;5.786;2023-11-21T09:14:22;13.10;99.90
33803;DHT22;20110;53.120;5.786;2023-11-21T09:16:49;13.10;99.90
33803;DHT22;20110;53.120;5.786;2023-11-21T09:19:15;13.10;99.90
33803;DHT22;20110;53.120;5.786;2023-11-21T09:21:41;13.20;99.90
33803;DHT22;20110;53.120;5.786;2023-11-21T09:24:07;13.20;99.90
33803;DHT22;20110;53.120;5.786;2023-11-21T09:26:34;13.20;99.90
33803;DHT22;20110;53.120;5.786;2023-11-21T09:29:00;13.30;99.90
33803;DHT22;20110;53.120;5.786;2023-11-21T09:31:27;13.30;99.90
33803;DHT22;20110;53.120;5.786;2023-11-21T09:33:53;13.40;99.90
33803;DHT22;20110;53.120;5.786;2023-11-21T09:36:18;13.50;99.90
33803;DHT22;20110;53.120;5.786;2023-11-21T09:38:44;13.50;99.90
33803;DHT22;20110;53.120;5.786;2023-11-21T09:42:11;13.60;99.90
33803;DHT22;20110;53.120;5.786;2023-11-21T09:44:09;13.60;99.90
33803;DHT22;20110;53.120;5.786;2023-11-21T09:46:40;13.60;99.90
33803;DHT22;20110;53.120;5.786;2023-11-21T09:49:08;13.60;99.90
33803;DHT22;20110;53.120;5.786;2023-11-21T09:51:42;13.60;99.90
33803;DHT22;20110;53.120;5.786;2023-11-21T09:54:09;13.60;99.90
33803;DHT22;20110;53.120;5.786;2023-11-21T09:56:39;13.60;99.90
33803;DHT22;20110;53.120;5.786;2023-11-21T09:59:05;13.60;99.90
33803;DHT22;20110;53.120;5.786;2023-11-21T10:01:38;13.60;99.90
33803;DHT22;20110;53.120;5.786;2023-11-21T10:04:04;13.70;99.90
33803;DHT22;20110;53.120;5.786;2023-11-21T10:06:39;13.80;99.90
33803;DHT22;20110;53.120;5.786;2023-11-21T10:09:12;13.90;99.90
33803;DHT22;20110;53.120;5.786;2023-11-21T10:11:42;13.90;99.90
33803;DHT22;20110;53.120;5.786;2023-11-21T10:14:12;13.90;99.90
33803;DHT22;20110;53.120;5.786;2023-11-21T10:16:40;13.90;99.90
33803;DHT22;20110;53.120;5.786;2023-11-21T10:19:10;14.00;99.90
33803;DHT22;20110;53.120;5.786;2023-11-21T10:21:37;13.90;99.90
33803;DHT22;20110;53.120;5.786;2023-11-21T10:24:04;13.80;99.90
33803;DHT22;20110;53.120;5.786;2023-11-21T10:26:30;13.80;99.90
33803;DHT22;20110;53.120;5.786;2023-11-21T10:28:58;13.80;99.90
33803;DHT22;20110;53.120;5.786;2023-11-21T10:31:27;13.80;99.90
33803;DHT22;20110;53.120;5.786;2023-11-21T10:33:52;13.70;99.90
33803;DHT22;20110;53.120;5.786;2023-11-21T10:36:25;13.70;99.90
33803;DHT22;20110;53.120;5.786;2023-11-21T10:38:53;13.70;99.90
33803;DHT22;20110;53.120;5.786;2023-11-21T10:41:19;13.70;99.90
33803;DHT22;20110;53.120;5.786;2023-11-21T10:43:45;13.70;99.90
33803;DHT22;20110;53.120;5.786;2023-11-21T10:46:11;13.70;99.90
33803;DHT22;20110;53.120;5.786;2023-11-21T10:48:38;13.70;99.90
33803;DHT22;20110;53.120;5.786;2023-11-21T10:51:07;13.60;99.90
33803;DHT22;20110;53.120;5.786;2023-11-21T10:53:38;13.60;99.90
33803;DHT22;20110;53.120;5.786;2023-11-21T10:56:06;13.60;99.90
33803;DHT22;20110;53.120;5.786;2023-11-21T10:58:35;13.60;99.90
33803;DHT22;20110;53.120;5.786;2023-11-21T11:01:04;13.60;99.90
33803;DHT22;20110;53.120;5.786;2023-11-21T11:03:32;13.60;99.90
33803;DHT22;20110;53.120;5.786;2023-11-21T11:05:59;13.70;99.90
33803;DHT22;20110;53.120;5.786;2023-11-21T11:08:25;13.70;99.90
33803;DHT22;20110;53.120;5.786;2023-11-21T11:10:52;13.70;99.90
33803;DHT22;20110;53.120;5.786;2023-11-21T11:13:18;13.70;99.90
33803;DHT22;20110;53.120;5.786;2023-11-21T11:15:47;13.80;99.90
33803;DHT22;20110;53.120;5.786;2023-11-21T11:18:13;13.90;99.90
33803;DHT22;20110;53.120;5.786;2023-11-21T11:20:39;13.80;99.90
33803;DHT22;20110;53.120;5.786;2023-11-21T11:29:12;13.60;99.90
33803;DHT22;20110;53.120;5.786;2023-11-21T11:32:03;13.60;99.90
33803;DHT22;20110;53.120;5.786;2023-11-21T11:34:44;13.70;99.90
33803;DHT22;20110;53.120;5.786;2023-11-21T11:37:15;13.80;99.90
33803;DHT22;20110;53.120;5.786;2023-11-21T11:39:41;13.70;99.90
33803;DHT22;20110;53.120;5.786;2023-11-21T11:42:11;13.70;99.90
33803;DHT22;20110;53.120;5.786;2023-11-21T11:47:19;14.30;99.90
33803;DHT22;20110;53.120;5.786;2023-11-21T11:55:11;14.50;99.90
33803;DHT22;20110;53.120;5.786;2023-11-21T11:57:47;14.40;1.00
33803;DHT22;20110;53.120;5.786;2023-11-21T12:02:51;14.30;99.90
33803;DHT22;20110;53.120;5.786;2023-11-21T12:05:19;14.10;99.90
33803;DHT22;20110;53.120;5.786;2023-11-21T12:07:46;13.90;99.90
33803;DHT22;20110;53.120;5.786;2023-11-21T12:10:14;13.90;99.90
33803;DHT22;20110;53.120;5.786;2023-11-21T12:12:53;14.00;99.90
33803;DHT22;20110;53.120;5.786;2023-11-21T12:15:23;14.20;99.90
33803;DHT22;20110;53.120;5.786;2023-11-21T12:17:51;14.30;99.90
33803;DHT22;20110;53.120;5.786;2023-11-21T12:20:21;14.40;19.80
33803;DHT22;20110;53.120;5.786;2023-11-21T12:22:49;14.40;1.00
33803;DHT22;20110;53.120;5.786;2023-11-21T12:25:19;14.40;99.90
33803;DHT22;20110;53.120;5.786;2023-11-21T12:27:57;14.30;99.90
33803;DHT22;20110;53.120;5.786;2023-11-21T12:30:28;14.40;99.90
33803;DHT22;20110;53.120;5.786;2023-11-21T12:32:56;14.50;99.90
33803;DHT22;20110;53.120;5.786;2023-11-21T12:35:26;14.60;99.90
33803;DHT22;20110;53.120;5.786;2023-11-21T12:37:54;14.50;99.90
33803;DHT22;20110;53.120;5.786;2023-11-21T12:40:21;14.40;99.90
33803;DHT22;20110;53.120;5.786;2023-11-21T12:42:48;14.20;1.00
33803;DHT22;20110;53.120;5.786;2023-11-21T12:47:55;14.10;30.10
33803;DHT22;20110;53.120;5.786;2023-11-21T12:50:25;14.10;99.90
33803;DHT22;20110;53.120;5.786;2023-11-21T12:52:54;13.90;20.60
33803;DHT22;20110;53.120;5.786;2023-11-21T12:55:24;13.80;82.10
33803;DHT22;20110;53.120;5.786;2023-11-21T12:57:52;13.70;99.90
33803;DHT22;20110;53.120;5.786;2023-11-21T13:00:30;13.60;99.90
33803;DHT22;20110;53.120;5.786;2023-11-21T13:02:59;13.50;99.90
33803;DHT22;20110;53.120;5.786;2023-11-21T13:05:28;13.30;99.90
33803;DHT22;20110;53.120;5.786;2023-11-21T13:07:56;13.30;99.90
33803;DHT22;20110;53.120;5.786;2023-11-21T13:10:24;13.30;99.90
33803;DHT22;20110;53.120;5.786;2023-11-21T13:12:55;13.40;1.00
33803;DHT22;20110;53.120;5.786;2023-11-21T13:15:23;13.50;1.00
33803;DHT22;20110;53.120;5.786;2023-11-21T13:17:53;13.60;1.00
33803;DHT22;20110;53.120;5.786;2023-11-21T13:20:21;13.70;1.00
33803;DHT22;20110;53.120;5.786;2023-11-21T13:22:48;13.80;99.90
33803;DHT22;20110;53.120;5.786;2023-11-21T13:25:30;13.70;99.90
33803;DHT22;20110;53.120;5.786;2023-11-21T13:27:59;13.50;99.90
33803;DHT22;20110;53.120;5.786;2023-11-21T13:30:28;13.30;99.90
33803;DHT22;20110;53.120;5.786;2023-11-21T13:33:03;13.30;99.90
33803;DHT22;20110;53.120;5.786;2023-11-21T13:35:37;13.30;99.90
33803;DHT22;20110;53.120;5.786;2023-11-21T13:38:07;13.40;99.90
33803;DHT22;20110;53.120;5.786;2023-11-21T13:40:35;13.50;99.90
33803;DHT22;20110;53.120;5.786;2023-11-21T13:43:12;13.60;99.90
33803;DHT22;20110;53.120;5.786;2023-11-21T13:45:39;13.70;99.90
33803;DHT22;20110;53.120;5.786;2023-11-21T13:48:06;13.60;99.90
33803;DHT22;20110;53.120;5.786;2023-11-21T13:50:37;13.60;99.90
33803;DHT22;20110;53.120;5.786;2023-11-21T13:53:03;13.70;99.90
33803;DHT22;20110;53.120;5.786;2023-11-21T13:55:50;14.00;99.90
33803;DHT22;20110;53.120;5.786;2023-11-21T13:58:17;14.20;99.90
33803;DHT22;20110;53.120;5.786;2023-11-21T14:00:48;14.20;99.90
33803;DHT22;20110;53.120;5.786;2023-11-21T14:03:22;14.20;91.90
33803;DHT22;20110;53.120;5.786;2023-11-21T14:05:50;14.00;66.90
33803;DHT22;20110;53.120;5.786;2023-11-21T14:08:22;13.90;99.90
33803;DHT22;20110;53.120;5.786;2023-11-21T14:10:54;13.80;99.90
33803;DHT22;20110;53.120;5.786;2023-11-21T14:13:25;13.60;99.90
33803;DHT22;20110;53.120;5.786;2023-11-21T14:15:51;13.50;99.90
33803;DHT22;20110;53.120;5.786;2023-11-21T14:18:24;13.40;99.90
33803;DHT22;20110;53.120;5.786;2023-11-21T14:21:01;13.30;99.90
33803;DHT22;20110;53.120;5.786;2023-11-21T14:23:27;13.30;99.90
33803;DHT22;20110;53.120;5.786;2023-11-21T14:25:55;13.20;1.00
33803;DHT22;20110;53.120;5.786;2023-11-21T14:28:21;13.10;4.90
33803;DHT22;20110;53.120;5.786;2023-11-21T14:30:47;13.00;99.90
33803;DHT22;20110;53.120;5.786;2023-11-21T14:33:12;12.90;99.90
33803;DHT22;20110;53.120;5.786;2023-11-21T14:35:38;12.80;99.90
33803;DHT22;20110;53.120;5.786;2023-11-21T14:38:04;12.80;99.90
33803;DHT22;20110;53.120;5.786;2023-11-21T14:40:30;12.70;99.90
33803;DHT22;20110;53.120;5.786;2023-11-21T14:43:01;12.60;1.00
33803;DHT22;20110;53.120;5.786;2023-11-21T14:45:31;12.50;99.90
33803;DHT22;20110;53.120;5.786;2023-11-21T14:47:58;12.30;99.90
33803;DHT22;20110;53.120;5.786;2023-11-21T14:50:46;12.20;99.90
33803;DHT22;20110;53.120;5.786;2023-11-21T14:53:27;12.10;99.90
33803;DHT22;20110;53.120;5.786;2023-11-21T14:56:16;12.00;99.90
33803;DHT22;20110;53.120;5.786;2023-11-21T14:58:50;11.90;99.90
33803;DHT22;20110;53.120;5.786;2023-11-21T15:01:16;11.80;99.90
33803;DHT22;20110;53.120;5.786;2023-11-21T15:03:52;11.70;99.90
33803;DHT22;20110;53.120;5.786;2023-11-21T15:06:18;11.70;99.90
33803;DHT22;20110;53.120;5.786;2023-11-21T15:08:54;11.70;99.90
33803;DHT22;20110;53.120;5.786;2023-11-21T15:11:32;11.70;99.90
33803;DHT22;20110;53.120;5.786;2023-11-21T15:13:59;11.60;99.90
33803;DHT22;20110;53.120;5.786;2023-11-21T15:16:26;11.50;99.90
33803;DHT22;20110;53.120;5.786;2023-11-21T15:18:52;11.50;99.90
33803;DHT22;20110;53.120;5.786;2023-11-21T15:21:21;11.40;99.90
33803;DHT22;20110;53.120;5.786;2023-11-21T15:23:49;11.40;99.90
33803;DHT22;20110;53.120;5.786;2023-11-21T15:26:16;11.40;99.90
33803;DHT22;20110;53.120;5.786;2023-11-21T15:28:41;11.40;99.90
33803;DHT22;20110;53.120;5.786;2023-11-21T15:31:07;11.40;99.90
33803;DHT22;20110;53.120;5.786;2023-11-21T15:33:33;11.40;99.90
33803;DHT22;20110;53.120;5.786;2023-11-21T15:36:02;11.40;99.90
33803;DHT22;20110;53.120;5.786;2023-11-21T15:38:29;11.40;99.90
33803;DHT22;20110;53.120;5.786;2023-11-21T15:40:55;11.50;99.90
33803;DHT22;20110;53.120;5.786;2023-11-21T15:43:23;11.50;99.90
33803;DHT22;20110;53.120;5.786;2023-11-21T15:45:49;11.50;99.90
33803;DHT22;20110;53.120;5.786;2023-11-21T15:48:15;11.40;99.90
33803;DHT22;20110;53.120;5.786;2023-11-21T15:50:41;11.30;99.90
33803;DHT22;20110;53.120;5.786;2023-11-21T15:53:07;11.30;99.90
33803;DHT22;20110;53.120;5.786;2023-11-21T15:55:33;11.10;99.90
33803;DHT22;20110;53.120;5.786;2023-11-21T15:58:01;11.10;99.90
33803;DHT22;20110;53.120;5.786;2023-11-21T16:00:30;11.00;99.90